Time;durP1;ratioP1;P1;durP2;ratioP2;P2;SDS_P1;SDS_P2;PMS_P1;PMS_P2;Temp;Humidity;BMP_temperature;BMP_pressure;BME280_temperature;BME280_humidity;BME280_pressure;Samples;Min_cycle;Max_cycle;Signal;HPM_P1;HPM_P2
2022/04/02 00:00:11;;;;;;;13.55;10.90;;;;;;;-0.55;100.00;100436.44;691813;28;1414;-81
2022/04/02 00:00:37;;;;;;;14.40;10.77;;;;;;;-0.51;100.00;100412.59;692231;28;1639;-81
2022/04/02 00:00:58;;;;;;;16.15;11.00;;;;;;;-0.52;100.00;100447.66;691287;28;1382;-81
2022/04/02 00:01:19;;;;;;;13.70;10.95;;;;;;;-0.52;100.00;100418.56;692430;28;1888;-81
2022/04/02 00:01:39;;;;;;;14.90;11.00;;;;;;;-0.58;100.00;100434.63;688999;28;1353;-81
2022/04/02 00:02:15;;;;;;;14.30;10.93;;;;;;;-0.60;100.00;100415.69;689716;28;1260;-81
2022/04/02 00:02:36;;;;;;;13.02;10.60;;;;;;;-0.61;100.00;100441.31;679531;28;6574;-80
2022/04/02 00:02:57;;;;;;;13.63;10.60;;;;;;;-0.59;100.00;100420.03;693401;28;1275;-80
2022/04/02 00:03:20;;;;;;;13.55;10.82;;;;;;;-0.61;100.00;100425.91;696122;28;1282;-80
2022/04/02 00:03:43;;;;;;;13.63;10.65;;;;;;;-0.61;100.00;100424.25;694682;28;1832;-80
2022/04/02 00:04:04;;;;;;;13.95;11.32;;;;;;;-0.62;100.00;100454.97;693528;28;1175;-81
2022/04/02 00:04:27;;;;;;;15.15;11.15;;;;;;;-0.63;100.00;100445.53;691341;28;4678;-80
2022/04/02 00:04:48;;;;;;;14.13;11.13;;;;;;;-0.63;100.00;100422.44;696460;28;1466;-80
2022/04/02 00:05:11;;;;;;;14.10;11.27;;;;;;;-0.65;100.00;100439.44;696994;28;1195;-80
2022/04/02 00:05:37;;;;;;;15.90;11.27;;;;;;;-0.67;100.00;100420.56;696943;28;4743;-81
2022/04/02 00:05:57;;;;;;;14.98;11.18;;;;;;;-0.72;100.00;100411.00;690281;28;1423;-80
2022/04/02 00:06:21;;;;;;;14.85;11.48;;;;;;;-0.72;100.00;100413.56;692622;28;1230;-81
2022/04/02 00:06:42;;;;;;;14.45;11.52;;;;;;;-0.72;100.00;100441.81;692867;28;1387;-80
2022/04/02 00:07:06;;;;;;;14.93;11.30;;;;;;;-0.73;100.00;100419.50;694639;28;1182;-81
2022/04/02 00:07:27;;;;;;;15.13;11.25;;;;;;;-0.74;100.00;100417.75;697575;28;1287;-81
2022/04/02 00:07:53;;;;;;;14.35;11.43;;;;;;;-0.71;100.00;100423.03;698732;28;910;-81
2022/04/02 00:08:13;;;;;;;14.25;11.13;;;;;;;-0.70;100.00;100419.63;697911;28;4268;-80
2022/04/02 00:08:37;;;;;;;14.45;10.50;;;;;;;-0.66;100.00;100443.72;699848;28;888;-81
2022/04/02 00:08:58;;;;;;;13.98;10.48;;;;;;;-0.62;100.00;100462.66;697462;28;922;-80
2022/04/02 00:09:18;;;;;;;14.63;10.48;;;;;;;-0.57;100.00;100431.25;695524;28;1277;-80
2022/04/02 00:09:40;;;;;;;14.20;10.77;;;;;;;-0.59;100.00;100426.84;695822;28;1228;-80
2022/04/02 00:10:00;;;;;;;14.05;10.80;;;;;;;-0.63;100.00;100455.81;693867;28;1445;-80
2022/04/02 00:10:21;;;;;;;13.93;10.83;;;;;;;-0.60;100.00;100449.06;695982;28;1308;-81
2022/04/02 00:10:42;;;;;;;12.65;10.43;;;;;;;-0.57;100.00;100438.03;695817;28;998;-81
2022/04/02 00:11:03;;;;;;;12.25;10.38;;;;;;;-0.54;100.00;100428.78;694522;28;1164;-80
2022/04/02 00:11:24;;;;;;;12.27;10.10;;;;;;;-0.48;100.00;100456.38;683587;28;4257;-81
2022/04/02 00:11:45;;;;;;;12.05;10.00;;;;;;;-0.50;100.00;100442.56;692116;28;998;-81
2022/04/02 00:12:09;;;;;;;12.15;10.05;;;;;;;-0.52;100.00;100459.63;692809;28;972;-80
2022/04/02 00:12:37;;;;;;;13.15;10.40;;;;;;;-0.47;100.00;100459.81;696862;28;1277;-80
2022/04/02 00:13:05;;;;;;;12.43;10.02;;;;;;;-0.52;100.00;100450.22;694439;28;1292;-80
2022/04/02 00:13:46;;;;;;;12.48;10.02;;;;;;;-0.52;100.00;100457.06;695336;28;1358;-80
2022/04/02 00:14:09;;;;;;;12.77;9.90;;;;;;;-0.41;100.00;100424.94;693125;28;836;-80
2022/04/02 00:14:30;;;;;;;12.43;9.65;;;;;;;-0.41;100.00;100426.66;693254;28;5070;-80
2022/04/02 00:14:51;;;;;;;11.75;9.52;;;;;;;-0.43;100.00;100454.84;697188;28;1044;-80
2022/04/02 00:15:12;;;;;;;13.00;10.00;;;;;;;-0.42;100.00;100461.72;697424;28;1457;-81
2022/04/02 00:15:33;;;;;;;12.77;9.70;;;;;;;-0.45;100.00;100448.75;698536;28;1305;-80
2022/04/02 00:15:54;;;;;;;13.98;10.07;;;;;;;-0.48;100.00;100430.69;695973;28;1309;-80
2022/04/02 00:16:14;;;;;;;13.65;10.63;;;;;;;-0.48;100.00;100458.94;691214;28;1344;-81
2022/04/02 00:16:35;;;;;;;12.10;9.68;;;;;;;-0.50;100.00;100440.00;692124;28;1412;-80
2022/04/02 00:16:56;;;;;;;12.07;9.52;;;;;;;-0.57;100.00;100449.22;694499;28;1074;-81
2022/04/02 00:17:16;;;;;;;14.67;10.47;;;;;;;-0.59;100.00;100467.94;690586;28;4368;-80
2022/04/02 00:17:37;;;;;;;15.10;10.13;;;;;;;-0.56;100.00;100447.50;692129;28;831;-80
2022/04/02 00:17:58;;;;;;;13.50;10.00;;;;;;;-0.49;100.00;100454.59;690490;28;1290;-81
2022/04/02 00:18:21;;;;;;;11.52;9.85;;;;;;;-0.50;100.00;100424.59;692041;28;1560;-80
2022/04/02 00:18:42;;;;;;;12.82;9.73;;;;;;;-0.46;100.00;100425.59;688793;28;1579;-80
2022/04/02 00:19:03;;;;;;;13.40;9.70;;;;;;;-0.42;100.00;100451.44;689187;28;1573;-80
2022/04/02 00:19:23;;;;;;;12.10;9.73;;;;;;;-0.32;100.00;100436.38;691354;28;3820;-80
2022/04/02 00:19:44;;;;;;;12.30;9.50;;;;;;;-0.41;100.00;100448.06;692886;28;1146;-80
2022/04/02 00:20:08;;;;;;;12.13;9.70;;;;;;;-0.42;100.00;100436.03;691043;28;1563;-80
2022/04/02 00:20:33;;;;;;;11.35;9.13;;;;;;;-0.48;100.00;100442.66;693835;28;5063;-81
2022/04/02 00:20:56;;;;;;;11.55;9.68;;;;;;;-0.55;100.00;100439.84;696929;28;1367;-80
2022/04/02 00:21:17;;;;;;;13.52;10.00;;;;;;;-0.57;100.00;100466.28;694413;28;1321;-80
2022/04/02 00:21:40;;;;;;;12.04;9.68;;;;;;;-0.59;100.00;100455.09;692232;28;1432;-80
2022/04/02 00:22:01;;;;;;;11.63;9.63;;;;;;;-0.59;100.00;100471.38;692074;28;1339;-80
2022/04/02 00:22:21;;;;;;;13.05;10.45;;;;;;;-0.61;100.00;100449.91;692061;28;1519;-80
2022/04/02 00:23:43;;;;;;;14.00;10.05;;;;;;;-0.63;100.00;100430.13;695669;28;4348;-80
2022/04/02 00:24:04;;;;;;;14.13;10.40;;;;;;;-0.61;100.00;100469.56;699758;28;1095;-80
2022/04/02 00:24:25;;;;;;;12.75;10.40;;;;;;;-0.67;100.00;100449.66;697773;28;1537;-80
2022/04/02 00:24:49;;;;;;;12.18;10.07;;;;;;;-0.69;100.00;100429.09;697540;28;1230;-80
2022/04/02 00:25:09;;;;;;;12.05;10.20;;;;;;;-0.67;100.00;100477.03;697870;28;1429;-80
2022/04/02 00:25:31;;;;;;;12.95;10.48;;;;;;;-0.70;100.00;100431.59;694756;28;1250;-80
2022/04/02 00:25:51;;;;;;;11.65;9.77;;;;;;;-0.74;100.00;100461.41;693571;28;1469;-80
2022/04/02 00:26:15;;;;;;;12.25;9.90;;;;;;;-0.75;100.00;100462.25;682561;28;4300;-81
2022/04/02 00:26:39;;;;;;;13.52;10.15;;;;;;;-0.70;100.00;100447.84;693570;28;1494;-80
2022/04/02 00:26:59;;;;;;;12.98;10.15;;;;;;;-0.71;100.00;100446.13;690968;28;1361;-80
2022/04/02 00:27:25;;;;;;;12.63;10.33;;;;;;;-0.71;100.00;100458.97;688540;28;1231;-81
2022/04/02 00:27:48;;;;;;;13.10;10.00;;;;;;;-0.70;100.00;100440.16;691939;28;1187;-80
2022/04/02 00:28:10;;;;;;;13.68;10.80;;;;;;;-0.69;100.00;100461.59;694278;28;1931;-80
2022/04/02 00:28:34;;;;;;;15.20;10.57;;;;;;;-0.66;100.00;100428.31;691066;28;1460;-80
2022/04/02 00:28:57;;;;;;;14.13;10.25;;;;;;;-0.62;100.00;100437.88;694239;28;1311;-80
2022/04/02 00:29:21;;;;;;;13.57;10.30;;;;;;;-0.66;100.00;100471.97;684445;28;4340;-80
2022/04/02 00:29:42;;;;;;;14.02;10.35;;;;;;;-0.61;100.00;100456.72;694719;28;1497;-80
2022/04/02 00:30:03;;;;;;;13.32;10.32;;;;;;;-0.64;100.00;100423.25;695422;28;1359;-80
2022/04/02 00:30:23;;;;;;;14.10;10.38;;;;;;;-0.65;100.00;100432.66;694516;28;1352;-80
2022/04/02 00:30:45;;;;;;;12.57;10.23;;;;;;;-0.66;100.00;100460.84;693823;28;1400;-80
2022/04/02 00:31:09;;;;;;;12.63;10.02;;;;;;;-0.65;100.00;100454.84;690602;28;1540;-80
2022/04/02 00:31:31;;;;;;;12.35;10.20;;;;;;;-0.68;100.00;100468.44;690371;28;1235;-81
2022/04/02 00:31:53;;;;;;;12.35;10.00;;;;;;;-0.65;100.00;100429.19;691900;28;1424;-80
2022/04/02 00:32:17;;;;;;;12.68;9.80;;;;;;;-0.62;100.00;100442.13;690786;28;4448;-80
2022/04/02 00:32:40;;;;;;;13.23;9.50;;;;;;;-0.58;100.00;100432.03;689074;28;1595;-80
2022/04/02 00:33:03;;;;;;;12.80;9.85;;;;;;;-0.61;100.00;100425.91;688348;28;1949;-80
2022/04/02 00:33:24;;;;;;;12.73;9.98;;;;;;;-0.62;100.00;100452.41;688412;28;1702;-80
2022/04/02 00:33:47;;;;;;;12.82;9.82;;;;;;;-0.62;100.00;100449.84;696140;28;1296;-80
2022/04/02 00:34:10;;;;;;;13.23;9.60;;;;;;;-0.64;100.00;100446.34;697068;28;1531;-80
2022/04/02 00:34:31;;;;;;;12.80;10.18;;;;;;;-0.62;100.00;100437.00;697796;28;1025;-80
2022/04/02 00:34:51;;;;;;;13.60;10.20;;;;;;;-0.64;100.00;100456.63;698326;28;1379;-80
2022/04/02 00:35:14;;;;;;;13.48;9.98;;;;;;;-0.65;100.00;100467.69;696976;28;4261;-80
2022/04/02 00:35:37;;;;;;;13.25;10.57;;;;;;;-0.66;100.00;100471.09;697546;28;891;-81
2022/04/02 00:35:58;;;;;;;13.80;10.18;;;;;;;-0.57;100.00;100456.03;694948;28;1319;-80
2022/04/02 00:36:26;;;;;;;12.10;9.52;;;;;;;-0.59;100.00;100449.97;692592;28;1415;-80
2022/04/02 00:36:49;;;;;;;13.30;10.00;;;;;;;-0.58;100.00;100485.06;691296;28;1131;-80
2022/04/02 00:37:10;;;;;;;12.15;10.32;;;;;;;-0.59;100.00;100452.53;691302;28;1504;-80
2022/04/02 00:37:31;;;;;;;14.95;10.38;;;;;;;-0.61;100.00;100423.34;691701;28;1696;-80
2022/04/02 00:37:54;;;;;;;12.70;10.40;;;;;;;-0.58;100.00;100444.00;695799;28;1732;-80
2022/04/02 00:38:14;;;;;;;12.10;10.00;;;;;;;-0.59;100.00;100445.69;691222;28;4296;-80
2022/04/02 00:38:36;;;;;;;12.90;10.05;;;;;;;-0.59;100.00;100452.53;691046;28;1098;-80
2022/04/02 00:39:06;;;;;;;13.73;10.43;;;;;;;-0.57;100.00;100432.91;695702;28;1279;-80
2022/04/02 00:39:27;;;;;;;12.88;10.73;;;;;;;-0.60;100.00;100437.94;691860;28;1354;-80
2022/04/02 00:39:57;;;;;;;12.82;10.60;;;;;;;-0.62;100.00;100465.22;691652;28;1206;-80
2022/04/02 00:40:20;;;;;;;13.00;10.38;;;;;;;-0.55;100.00;100459.53;692911;28;1569;-80
2022/04/02 00:40:44;;;;;;;13.03;10.40;;;;;;;-0.54;100.00;100461.25;697196;28;1245;-80
2022/04/02 00:41:08;;;;;;;14.13;10.55;;;;;;;-0.57;100.00;100431.25;695327;28;1314;-80
2022/04/02 00:41:29;;;;;;;13.70;10.13;;;;;;;-0.57;100.00;100456.03;696767;28;4548;-82
2022/04/02 00:41:50;;;;;;;13.17;10.00;;;;;;;-0.59;100.00;100432.84;696736;28;1612;-80
2022/04/02 00:42:10;;;;;;;12.60;10.10;;;;;;;-0.60;100.00;100463.63;700407;28;1616;-80
2022/04/02 00:42:39;;;;;;;13.90;10.55;;;;;;;-0.64;100.00;100449.78;695106;28;1404;-80
2022/04/02 00:43:01;;;;;;;13.02;10.50;;;;;;;-0.69;100.00;100425.66;696327;28;1278;-79
2022/04/02 00:43:26;;;;;;;14.73;11.03;;;;;;;-0.68;100.00;100468.44;694514;28;1306;-80
2022/04/02 00:44:16;;;;;;;13.73;9.90;;;;;;;-0.69;100.00;100462.44;691779;28;1387;-80
2022/04/02 00:44:40;;;;;;;14.57;10.98;;;;;;;-0.56;100.00;100457.78;688200;28;4912;-80
2022/04/02 00:45:01;;;;;;;13.30;10.32;;;;;;;-0.61;100.00;100434.50;689179;28;1637;-80
2022/04/02 00:45:21;;;;;;;14.52;10.40;;;;;;;-0.62;100.00;100448.16;689935;28;1001;-80
2022/04/02 00:45:42;;;;;;;16.70;10.70;;;;;;;-0.61;100.00;100433.63;693162;28;1182;-80
2022/04/02 00:46:07;;;;;;;13.80;10.70;;;;;;;-0.58;100.00;100436.28;691874;28;1311;-80
2022/04/02 00:46:28;;;;;;;14.15;10.80;;;;;;;-0.58;100.00;100464.53;695520;28;1633;-80
2022/04/02 00:46:51;;;;;;;13.20;10.27;;;;;;;-0.54;100.00;100462.16;691579;28;1591;-80
2022/04/02 00:47:12;;;;;;;13.05;10.27;;;;;;;-0.56;100.00;100468.06;693921;28;4265;-80
2022/04/02 00:47:33;;;;;;;14.88;10.10;;;;;;;-0.60;100.00;100445.66;692030;28;1170;-80
2022/04/02 00:47:53;;;;;;;15.10;10.70;;;;;;;-0.60;100.00;100448.22;695706;28;1332;-80
2022/04/02 00:48:16;;;;;;;14.00;10.60;;;;;;;-0.57;100.00;100435.47;696998;28;1938;-80
2022/04/02 00:48:38;;;;;;;11.80;10.20;;;;;;;-0.60;100.00;100430.25;695162;28;1284;-80
2022/04/02 00:48:58;;;;;;;12.32;10.30;;;;;;;-0.61;100.00;100460.19;696189;28;1166;-80
2022/04/02 00:49:20;;;;;;;14.05;10.55;;;;;;;-0.64;100.00;100454.03;691966;28;1266;-80
2022/04/02 00:49:43;;;;;;;14.45;10.30;;;;;;;-0.64;100.00;100439.50;694887;28;852;-80
2022/04/02 00:50:04;;;;;;;12.50;10.13;;;;;;;-0.64;100.00;100461.75;696746;28;1270;-81
2022/04/02 00:50:29;;;;;;;13.02;10.65;;;;;;;-0.66;100.00;100432.59;697658;28;4301;-80
2022/04/02 00:50:55;;;;;;;14.95;10.40;;;;;;;-0.64;100.00;100484.84;698510;28;1306;-80
2022/04/02 00:51:18;;;;;;;14.30;10.70;;;;;;;-0.66;100.00;100466.84;691920;28;1323;-80
2022/04/02 00:51:41;;;;;;;14.73;10.80;;;;;;;-0.66;100.00;100478.81;695185;28;1271;-80
2022/04/02 00:52:02;;;;;;;15.27;11.30;;;;;;;-0.68;100.00;100468.44;692426;28;1808;-80
2022/04/02 00:52:26;;;;;;;14.50;10.90;;;;;;;-0.72;100.00;100446.94;694407;28;1306;-80
2022/04/02 00:52:47;;;;;;;14.98;10.77;;;;;;;-0.73;100.00;100455.47;693941;28;1239;-80
2022/04/02 00:53:19;;;;;;;;;;;;;;;;;;;;;
2022/04/02 00:53:49;;;;;;;16.30;10.77;;;;;;;-0.74;100.00;100438.28;692331;28;4781;-81
2022/04/02 00:54:15;;;;;;;14.75;10.55;;;;;;;-0.73;100.00;100462.28;697750;28;1249;-80
2022/04/02 00:54:40;;;;;;;14.27;10.68;;;;;;;-0.75;100.00;100456.22;701099;28;1411;-80
2022/04/02 00:55:00;;;;;;;14.32;10.68;;;;;;;-0.77;100.00;100456.16;703137;28;1378;-81
2022/04/02 00:55:21;;;;;;;14.05;10.15;;;;;;;-0.75;100.00;100431.44;697172;28;1336;-80
2022/04/02 00:55:45;;;;;;;13.73;10.55;;;;;;;-0.75;100.00;100436.56;695223;28;1518;-80
2022/04/02 00:56:06;;;;;;;14.63;10.63;;;;;;;-0.76;100.00;100442.50;695465;28;1510;-80
2022/04/02 00:56:27;;;;;;;13.75;10.73;;;;;;;-0.73;100.00;100429.78;695560;28;4297;-80
2022/04/02 00:56:48;;;;;;;13.70;10.57;;;;;;;-0.69;100.00;100431.66;694133;28;1451;-81
2022/04/02 00:57:09;;;;;;;13.52;10.52;;;;;;;-0.66;100.00;100430.03;694875;28;1263;-80
2022/04/02 00:57:32;;;;;;;13.35;10.50;;;;;;;-0.71;100.00;100430.72;694064;28;1357;-80
2022/04/02 00:57:53;;;;;;;12.88;10.30;;;;;;;-0.62;100.00;100447.25;692484;28;1377;-80
2022/04/02 00:58:15;;;;;;;12.90;10.40;;;;;;;-0.64;100.00;100469.47;693144;28;2189;-80
2022/04/02 00:58:39;;;;;;;13.48;10.98;;;;;;;-0.66;100.00;100465.97;691392;28;1310;-81
2022/04/02 00:59:13;;;;;;;14.07;11.02;;;;;;;-0.65;100.00;100450.63;693024;28;2533;-80
2022/04/02 00:59:35;;;;;;;14.15;11.00;;;;;;;-0.63;100.00;100459.25;693851;28;5091;-81
2022/04/02 00:59:58;;;;;;;14.15;10.27;;;;;;;-0.63;100.00;100471.22;694575;28;1481;-80
2022/04/02 01:00:19;;;;;;;11.77;9.65;;;;;;;-0.66;100.00;100441.16;690103;28;1502;-80
2022/04/02 01:00:42;;;;;;;12.55;9.85;;;;;;;-0.63;100.00;100438.69;689289;28;2289;-80
2022/04/02 01:01:07;;;;;;;13.70;10.20;;;;;;;-0.64;100.00;100461.75;692469;28;1494;-81
2022/04/02 01:01:37;;;;;;;14.00;10.40;;;;;;;-0.66;100.00;100445.44;689018;28;1578;-80
2022/04/02 01:01:58;;;;;;;14.07;10.50;;;;;;;-0.61;100.00;100459.28;694519;28;1745;-80
2022/04/02 01:02:19;;;;;;;12.97;10.37;;;;;;;-0.65;100.00;100478.88;695100;28;4527;-80
2022/04/02 01:02:41;;;;;;;13.45;10.20;;;;;;;-0.61;100.00;100439.66;691794;28;1738;-80
2022/04/02 01:03:02;;;;;;;13.00;10.27;;;;;;;-0.63;100.00;100455.81;693819;28;1410;-80
2022/04/02 01:03:23;;;;;;;12.77;10.00;;;;;;;-0.68;100.00;100460.75;694750;28;1606;-81
2022/04/02 01:04:06;;;;;;;14.43;10.55;;;;;;;-0.71;100.00;100440.09;694323;28;1374;-81
2022/04/02 01:04:37;;;;;;;14.40;10.55;;;;;;;-0.74;100.00;100448.56;694218;28;1486;-81
2022/04/02 01:05:00;;;;;;;15.70;10.93;;;;;;;-0.69;100.00;100451.31;693581;28;1564;-80
2022/04/02 01:05:27;;;;;;;15.48;10.65;;;;;;;-0.70;100.00;100453.00;694288;28;4263;-80
2022/04/02 01:05:48;;;;;;;14.13;10.30;;;;;;;-0.67;100.00;100443.69;694837;28;1499;-80
2022/04/02 01:06:10;;;;;;;14.85;10.65;;;;;;;-0.67;100.00;100434.25;691304;28;1922;-80
2022/04/02 01:06:35;;;;;;;14.93;10.93;;;;;;;-0.69;100.00;100457.31;692247;28;1316;-80
2022/04/02 01:06:59;;;;;;;13.93;10.45;;;;;;;-0.66;100.00;100465.97;693625;28;1605;-81
2022/04/02 01:07:21;;;;;;;13.55;10.40;;;;;;;-0.71;100.00;100437.53;695540;28;1571;-80
2022/04/02 01:07:42;;;;;;;13.35;10.55;;;;;;;-0.67;100.00;100469.34;693779;28;1625;-80
2022/04/02 01:08:08;;;;;;;14.87;10.87;;;;;;;-0.67;100.00;100472.78;694573;28;1433;-81
2022/04/02 01:08:37;;;;;;;13.20;10.43;;;;;;;-0.64;100.00;100452.34;690967;28;5030;-80
2022/04/02 01:08:59;;;;;;;13.63;10.57;;;;;;;-0.64;100.00;100433.50;696413;28;1294;-81
2022/04/02 01:09:19;;;;;;;13.85;10.48;;;;;;;-0.64;100.00;100474.59;692188;28;1465;-80
2022/04/02 01:09:51;;;;;;;13.82;10.18;;;;;;;-0.66;100.00;100468.53;694211;28;1624;-81
2022/04/02 01:10:12;;;;;;;13.88;10.82;;;;;;;-0.69;100.00;100466.72;694128;28;1185;-80
2022/04/02 01:10:41;;;;;;;13.70;10.85;;;;;;;-0.74;100.00;100435.72;694195;28;1402;-80
2022/04/02 01:11:03;;;;;;;13.70;10.23;;;;;;;-0.74;100.00;100435.72;694088;28;1258;-80
2022/04/02 01:11:41;;;;;;;12.55;9.95;;;;;;;-0.71;100.00;100447.81;697223;28;4263;-80
2022/04/02 01:12:05;;;;;;;12.95;10.63;;;;;;;-0.71;100.00;100438.44;698807;28;1255;-81
2022/04/02 01:12:29;;;;;;;13.38;10.40;;;;;;;-0.73;100.00;100436.63;700111;28;1268;-79
2022/04/02 01:12:52;;;;;;;14.13;10.13;;;;;;;-0.63;100.00;100486.63;700304;28;1321;-80
2022/04/02 01:13:15;;;;;;;12.57;10.03;;;;;;;-0.58;100.00;100449.13;694099;28;1675;-80
2022/04/02 01:13:39;;;;;;;12.20;10.07;;;;;;;-0.59;100.00;100463.66;694789;28;1756;-80
2022/04/02 01:14:04;;;;;;;12.85;10.38;;;;;;;-0.64;100.00;100454.03;697643;28;1630;-80
2022/04/02 01:14:25;;;;;;;13.45;10.32;;;;;;;-0.64;100.00;100443.78;695678;28;4321;-80
2022/04/02 01:14:54;;;;;;;12.35;9.93;;;;;;;-0.65;100.00;100434.31;700187;28;1297;-80
2022/04/02 01:15:28;;;;;;;12.10;9.68;;;;;;;-0.65;100.00;100442.03;699121;28;3981;-80
2022/04/02 01:15:52;;;;;;;12.95;9.98;;;;;;;-0.65;100.00;100483.09;695493;28;1583;-80
2022/04/02 01:16:15;;;;;;;12.65;9.65;;;;;;;-0.67;100.00;100434.25;693633;28;1809;-80
2022/04/02 01:16:38;;;;;;;13.43;9.65;;;;;;;-0.68;100.00;100435.06;697217;28;1488;-80
2022/04/02 01:17:05;;;;;;;13.02;9.68;;;;;;;-0.67;100.00;100464.22;697195;28;1450;-80
2022/04/02 01:17:27;;;;;;;13.50;10.45;;;;;;;-0.66;100.00;100465.97;695715;28;4222;-80
2022/04/02 01:17:48;;;;;;;13.02;10.18;;;;;;;-0.64;100.00;100490.00;697822;28;1325;-80
2022/04/02 01:18:19;;;;;;;12.55;10.07;;;;;;;-0.66;100.00;100492.50;693493;28;1604;-80
2022/04/02 01:18:43;;;;;;;13.52;10.32;;;;;;;-0.68;100.00;100460.75;694351;28;1634;-81
2022/04/02 01:19:08;;;;;;;12.75;9.90;;;;;;;-0.67;100.00;100471.91;697287;28;1261;-80
2022/04/02 01:19:36;;;;;;;12.93;10.07;;;;;;;-0.66;100.00;100438.59;698968;28;1409;-80
2022/04/02 01:20:08;;;;;;;12.13;9.90;;;;;;;-0.66;100.00;100468.53;699435;28;1387;-80
2022/04/02 01:20:33;;;;;;;12.52;10.13;;;;;;;-0.69;100.00;100431.66;695283;28;4715;-80
2022/04/02 01:20:55;;;;;;;14.90;10.73;;;;;;;-0.67;100.00;100433.41;692961;28;1456;-80
2022/04/02 01:21:21;;;;;;;13.25;9.68;;;;;;;-0.60;100.00;100441.38;697250;28;1643;-80
2022/04/02 01:21:46;;;;;;;13.77;10.10;;;;;;;-0.58;100.00;100441.41;694852;28;1556;-80
2022/04/02 01:22:16;;;;;;;13.38;10.15;;;;;;;-0.59;100.00;100453.41;691453;28;1541;-80
2022/04/02 01:22:42;;;;;;;13.45;10.07;;;;;;;-0.54;100.00;100445.84;689099;28;1309;-80
2022/04/02 01:23:03;;;;;;;12.38;9.63;;;;;;;-0.49;100.00;100434.06;690847;28;1393;-80
2022/04/02 01:23:32;;;;;;;13.30;10.20;;;;;;;-0.57;100.00;100430.34;688342;28;4749;-80
2022/04/02 01:24:01;;;;;;;12.43;9.75;;;;;;;-0.58;100.00;100438.84;693152;28;1325;-80
2022/04/02 01:24:22;;;;;;;12.23;9.30;;;;;;;-0.61;100.00;100460.19;695458;28;1364;-80
2022/04/02 01:24:49;;;;;;;13.30;9.73;;;;;;;-0.61;100.00;100462.75;692877;28;1448;-80
2022/04/02 01:25:12;;;;;;;15.18;10.00;;;;;;;-0.59;100.00;100491.91;693192;28;1374;-80
2022/04/02 01:25:38;;;;;;;12.02;9.20;;;;;;;-0.61;100.00;100439.66;690618;28;1723;-80
2022/04/02 01:26:11;;;;;;;12.52;9.07;;;;;;;-0.53;100.00;100463.91;695005;28;1562;-80
2022/04/02 01:26:39;;;;;;;12.88;9.60;;;;;;;-0.59;100.00;100447.41;690363;28;4735;-80
2022/04/02 01:27:06;;;;;;;12.00;9.48;;;;;;;-0.64;100.00;100438.66;694955;28;1449;-81
2022/04/02 01:27:27;;;;;;;13.13;9.68;;;;;;;-0.66;100.00;100468.53;695226;28;1641;-80
2022/04/02 01:27:53;;;;;;;12.00;9.23;;;;;;;-0.69;100.00;100449.63;694696;28;1436;-80
2022/04/02 01:28:17;;;;;;;13.13;9.52;;;;;;;-0.65;100.00;100439.44;700116;28;1967;-80
2022/04/02 01:28:40;;;;;;;13.90;9.57;;;;;;;-0.59;100.00;100467.94;697367;28;1632;-79
2022/04/02 01:29:07;;;;;;;11.82;9.00;;;;;;;-0.59;100.00;100457.66;692124;28;1552;-80
2022/04/02 01:29:35;;;;;;;12.93;9.40;;;;;;;-0.63;100.00;100472.06;691213;28;4755;-80
2022/04/02 01:30:01;;;;;;;12.18;9.27;;;;;;;-0.63;100.00;100450.69;694810;28;1342;-80
2022/04/02 01:30:33;;;;;;;13.40;9.85;;;;;;;-0.68;100.00;100471.03;695343;28;1894;-80
2022/04/02 01:30:53;;;;;;;12.07;9.80;;;;;;;-0.67;100.00;100449.66;697375;28;1123;-82
2022/04/02 01:31:17;;;;;;;12.90;9.68;;;;;;;-0.65;100.00;100478.88;699413;28;1450;-80
2022/04/02 01:31:44;;;;;;;12.88;9.82;;;;;;;-0.70;100.00;100440.16;698676;28;1762;-80
2022/04/02 01:32:08;;;;;;;12.27;9.38;;;;;;;-0.73;100.00;100445.19;697284;28;1507;-80
2022/04/02 01:32:31;;;;;;;13.40;10.20;;;;;;;-0.79;100.00;100459.47;694247;28;4659;-79
2022/04/02 01:33:17;;;;;;;12.05;10.32;;;;;;;-0.82;100.00;100485.91;694054;28;1285;-80
2022/04/02 01:33:37;;;;;;;13.58;9.80;;;;;;;-0.77;100.00;100479.25;693182;28;1438;-80
2022/04/02 01:34:07;;;;;;;13.35;9.55;;;;;;;-0.75;100.00;100454.53;693761;28;1433;-80
2022/04/02 01:34:32;;;;;;;11.90;9.57;;;;;;;-0.75;100.00;100472.50;694260;28;1665;-80
2022/04/02 01:34:59;;;;;;;12.95;9.30;;;;;;;-0.65;100.00;100490.81;694608;28;1272;-80
2022/04/02 01:35:21;;;;;;;12.30;9.67;;;;;;;-0.70;100.00;100486.38;693987;28;4303;-80
2022/04/02 01:36:00;;;;;;;13.18;9.85;;;;;;;-0.72;100.00;100476.84;690069;28;1257;-80
2022/04/02 01:36:22;;;;;;;13.50;9.85;;;;;;;-0.71;100.00;100453.84;696801;28;1374;-80
2022/04/02 01:36:53;;;;;;;13.10;10.35;;;;;;;-0.72;100.00;100467.47;697890;28;1332;-80
2022/04/02 01:37:18;;;;;;;14.35;10.25;;;;;;;-0.76;100.00;100472.41;697503;28;1265;-80
2022/04/02 01:37:51;;;;;;;12.20;9.48;;;;;;;-0.78;100.00;100474.94;689725;28;1613;-80
2022/04/02 01:38:16;;;;;;;13.13;9.77;;;;;;;-0.77;100.00;100483.53;687846;28;4292;-80
2022/04/02 01:38:37;;;;;;;13.88;9.75;;;;;;;-0.78;100.00;100474.94;691197;28;1212;-80
2022/04/02 01:38:59;;;;;;;12.90;9.50;;;;;;;-0.66;100.00;100477.09;690556;28;1812;-80
2022/04/02 01:39:22;;;;;;;14.00;9.57;;;;;;;-0.63;100.00;100481.47;692132;28;1304;-79
2022/04/02 01:39:43;;;;;;;13.20;9.50;;;;;;;-0.67;100.00;100454.81;692695;28;1098;-80
2022/04/02 01:40:07;;;;;;;12.43;9.48;;;;;;;-0.67;100.00;100477.91;696358;28;1283;-80
2022/04/02 01:40:41;;;;;;;14.70;9.90;;;;;;;-0.72;100.00;100482.00;700642;28;957;-81
2022/04/02 01:41:05;;;;;;;12.73;9.93;;;;;;;-0.70;100.00;100481.22;697483;28;1566;-81
2022/04/02 01:41:31;;;;;;;12.73;9.73;;;;;;;-0.74;100.00;100470.81;695248;28;4731;-81
2022/04/02 01:41:52;;;;;;;12.38;9.40;;;;;;;-0.74;100.00;100478.50;697253;28;1352;-81
2022/04/02 01:42:20;;;;;;;13.57;10.23;;;;;;;-0.78;100.00;100446.69;692370;28;1182;-82
2022/04/02 01:42:51;;;;;;;13.68;9.93;;;;;;;-0.81;100.00;100474.81;697782;28;1256;-81
2022/04/02 01:43:13;;;;;;;14.25;10.45;;;;;;;-0.82;100.00;100478.19;697673;28;1245;-81
2022/04/02 01:43:39;;;;;;;15.50;10.13;;;;;;;-0.80;100.00;100488.53;690804;28;1461;-81
2022/04/02 01:44:03;;;;;;;14.57;10.23;;;;;;;-0.82;100.00;100447.41;694705;28;1243;-81
2022/04/02 01:44:24;;;;;;;15.52;10.30;;;;;;;-0.82;100.00;100479.91;693508;28;4299;-80
2022/04/02 01:44:51;;;;;;;15.93;10.68;;;;;;;-0.82;100.00;100455.09;700092;28;1429;-81
2022/04/02 01:45:15;;;;;;;15.35;10.52;;;;;;;-0.82;100.00;100441.41;698179;28;1507;-81
2022/04/02 01:45:57;;;;;;;14.98;10.60;;;;;;;-0.85;100.00;100475.53;696223;28;1272;-81
2022/04/02 01:46:21;;;;;;;14.60;10.93;;;;;;;-0.81;100.00;100440.59;697480;28;1633;-81
2022/04/02 01:46:45;;;;;;;15.40;10.77;;;;;;;-0.72;100.00;100459.78;695491;28;1577;-80
2022/04/02 01:47:05;;;;;;;14.48;10.10;;;;;;;-0.76;100.00;100481.00;694825;28;1068;-80
2022/04/02 01:47:27;;;;;;;14.23;10.40;;;;;;;-0.74;100.00;100469.09;692750;28;4317;-81
2022/04/02 01:47:51;;;;;;;15.40;10.93;;;;;;;-0.79;100.00;100449.22;691127;28;1414;-80
2022/04/02 01:48:13;;;;;;;14.90;10.95;;;;;;;-0.82;100.00;100449.09;692134;28;1886;-82
2022/04/02 01:48:52;;;;;;;15.23;11.07;;;;;;;-0.85;100.00;100449.84;691514;28;1421;-81
2022/04/02 01:49:15;;;;;;;14.98;11.18;;;;;;;-0.86;100.00;100473.75;691535;28;1599;-80
2022/04/02 01:49:38;;;;;;;16.38;10.95;;;;;;;-0.87;100.00;100477.16;691892;28;1509;-80
2022/04/02 01:49:59;;;;;;;15.57;10.70;;;;;;;-0.85;100.00;100455.00;693239;28;1329;-80
2022/04/02 01:50:20;;;;;;;14.77;10.90;;;;;;;-0.88;100.00;100460.00;695030;28;4318;-80
2022/04/02 01:50:44;;;;;;;15.98;10.95;;;;;;;-0.87;100.00;100495.13;691454;28;1091;-80
2022/04/02 01:51:05;;;;;;;14.05;10.25;;;;;;;-0.86;100.00;100482.34;695109;28;1443;-80
2022/04/02 01:51:26;;;;;;;13.68;10.68;;;;;;;-0.82;100.00;100457.66;695934;28;1321;-80
2022/04/02 01:51:47;;;;;;;14.85;10.45;;;;;;;-0.82;100.00;100462.78;695776;28;994;-80
2022/04/02 01:52:16;;;;;;;15.20;10.82;;;;;;;-0.84;100.00;100461.88;699611;28;1284;-80